Time;durP1;ratioP1;P1;durP2;ratioP2;P2;SDS_P1;SDS_P2;PMS_P1;PMS_P2;Temp;Humidity;BMP_temperature;BMP_pressure;BME280_temperature;BME280_humidity;BME280_pressure;Samples;Min_cycle;Max_cycle;Signal;HPM_P1;HPM_P2
2022/04/26 03:36:12;;;;;;;5.55;4.18;;;;;;;8.41;100.00;101474.84;6373283;23;20014;-69
2022/04/26 03:38:47;;;;;;;8.13;4.70;;;;;;;8.43;100.00;101474.72;6373167;23;20022;-69
2022/04/26 03:41:18;;;;;;;8.48;4.85;;;;;;;8.43;100.00;101474.72;6348019;23;20185;-71
2022/04/26 03:43:50;;;;;;;6.50;4.25;;;;;;;8.44;100.00;101474.59;6372587;23;20452;-69
2022/04/26 03:46:21;;;;;;;8.45;4.97;;;;;;;8.48;100.00;101472.63;6346119;23;20501;-69
2022/04/26 03:48:52;;;;;;;6.90;4.97;;;;;;;8.45;100.00;101483.31;6374884;23;20006;-69
2022/04/26 03:51:24;;;;;;;6.82;4.47;;;;;;;8.46;100.00;101485.81;6374677;23;20006;-70
2022/04/26 03:53:55;;;;;;;6.28;4.28;;;;;;;8.48;100.00;101483.06;6375207;23;20533;-70
2022/04/26 03:56:26;;;;;;;4.75;3.97;;;;;;;8.45;100.00;101484.13;6375129;23;20021;-69
2022/04/26 03:58:57;;;;;;;9.73;4.70;;;;;;;8.46;100.00;101484.97;6374431;23;20064;-69
2022/04/26 04:01:29;;;;;;;7.45;4.43;;;;;;;8.48;100.00;101494.34;6374060;23;20005;-69
2022/04/26 04:04:00;;;;;;;6.18;4.35;;;;;;;8.47;100.00;101484.03;6373532;23;20089;-70
2022/04/26 04:06:31;;;;;;;6.55;4.93;;;;;;;8.46;100.00;101485.81;6372734;23;20536;-70
2022/04/26 04:09:03;;;;;;;7.25;5.05;;;;;;;8.44;100.00;101492.06;6349176;23;20009;-71
2022/04/26 04:11:34;;;;;;;7.60;4.32;;;;;;;8.43;100.00;101496.44;6348798;23;20386;-69
2022/04/26 04:14:06;;;;;;;6.45;4.40;;;;;;;8.43;100.00;101491.22;6374997;23;20010;-70
2022/04/26 04:16:37;;;;;;;7.55;5.40;;;;;;;8.43;100.00;101501.66;6374948;23;20008;-69
2022/04/26 04:19:17;;;;;;;9.15;4.95;;;;;;;8.47;100.00;101502.31;6374404;23;20476;-70
2022/04/26 04:21:50;;;;;;;8.45;5.22;;;;;;;8.49;100.00;101505.66;6374827;23;20006;-72
2022/04/26 04:24:21;;;;;;;5.30;4.40;;;;;;;8.50;100.00;101509.94;6374527;23;20398;-70
2022/04/26 04:26:52;;;;;;;5.95;5.28;;;;;;;8.43;100.00;101500.81;6375245;23;20033;-70
2022/04/26 04:29:24;;;;;;;8.20;5.65;;;;;;;8.44;100.00;101512.94;6374668;23;20013;-70
2022/04/26 04:31:55;;;;;;;5.97;4.82;;;;;;;8.47;100.00;101513.56;6374918;23;20449;-70
2022/04/26 04:34:26;;;;;;;6.70;5.35;;;;;;;8.48;100.00;101519.63;6375094;23;20392;-70
2022/04/26 04:36:58;;;;;;;9.23;6.20;;;;;;;8.48;100.00;101517.84;6374954;23;20032;-70
2022/04/26 04:39:29;;;;;;;8.85;5.25;;;;;;;8.49;100.00;101530.00;6374927;23;20089;-69
2022/04/26 04:42:00;;;;;;;6.53;5.05;;;;;;;8.50;100.00;101523.00;6374605;23;20463;-70
2022/04/26 04:44:32;;;;;;;7.50;5.38;;;;;;;8.47;100.00;101512.75;6374464;23;20061;-69
2022/04/26 04:47:04;;;;;;;7.97;5.68;;;;;;;8.48;100.00;101527.47;6375220;23;20006;-71
2022/04/26 04:49:35;;;;;;;6.97;5.20;;;;;;;8.47;100.00;101537.09;6374440;23;20009;-69
2022/04/26 04:52:06;;;;;;;7.57;5.50;;;;;;;8.51;100.00;101535.09;6373700;23;20010;-69
2022/04/26 04:54:38;;;;;;;11.52;5.07;;;;;;;8.50;100.00;101538.66;6373771;23;20080;-70
2022/04/26 04:57:09;;;;;;;7.90;5.20;;;;;;;8.49;100.00;101548.28;6374204;23;20118;-69
2022/04/26 04:59:40;;;;;;;9.23;5.25;;;;;;;8.53;100.00;101548.91;6374511;23;20013;-70
2022/04/26 05:02:12;;;;;;;7.47;5.00;;;;;;;8.51;100.00;101550.78;6374800;23;20116;-70
2022/04/26 05:04:43;;;;;;;7.55;4.93;;;;;;;8.56;100.00;101553.09;6374615;23;20374;-70
2022/04/26 05:07:14;;;;;;;8.05;5.90;;;;;;;8.52;100.00;101558.53;6374485;23;20016;-69
2022/04/26 05:09:45;;;;;;;10.05;5.80;;;;;;;8.53;100.00;101556.75;6374394;23;20006;-70
2022/04/26 05:12:18;;;;;;;7.28;4.63;;;;;;;8.52;100.00;101558.53;6374935;23;20012;-70
2022/04/26 05:14:50;;;;;;;6.28;5.35;;;;;;;8.55;100.00;101569.69;6374174;23;20009;-69
2022/04/26 05:17:21;;;;;;;7.72;5.43;;;;;;;8.56;100.00;101574.84;6374356;23;20062;-70
2022/04/26 05:19:53;;;;;;;8.80;5.43;;;;;;;8.57;100.00;101575.69;6374829;23;20010;-70
2022/04/26 05:22:24;;;;;;;6.22;5.10;;;;;;;8.59;100.00;101576.41;6374697;23;20045;-69
2022/04/26 05:24:58;;;;;;;8.10;5.40;;;;;;;8.59;100.00;101581.63;6374723;23;20014;-71
2022/04/26 05:27:34;;;;;;;7.60;5.50;;;;;;;8.58;100.00;101588.63;6373640;23;20010;-70
2022/04/26 05:30:06;;;;;;;8.68;5.55;;;;;;;8.57;100.00;101578.28;6373951;23;20014;-72
2022/04/26 05:32:37;;;;;;;6.70;5.03;;;;;;;8.60;100.00;101580.69;6348564;23;20058;-70
2022/04/26 05:35:10;;;;;;;11.88;5.15;;;;;;;8.63;100.00;101580.47;6374130;23;20014;-70
2022/04/26 05:37:42;;;;;;;8.73;5.85;;;;;;;8.62;100.00;101584.88;6374020;23;20057;-70
2022/04/26 05:40:13;;;;;;;6.75;5.38;;;;;;;8.63;100.00;101591.75;6372788;23;20406;-71
2022/04/26 05:42:44;;;;;;;10.32;5.82;;;;;;;8.68;100.00;101594.94;6372809;23;20034;-70
2022/04/26 05:45:16;;;;;;;8.05;5.70;;;;;;;8.68;100.00;101589.72;6373619;23;20018;-69
2022/04/26 05:47:47;;;;;;;9.57;6.07;;;;;;;8.69;100.00;101590.53;6374813;23;20333;-70
2022/04/26 05:50:18;;;;;;;11.05;6.10;;;;;;;8.71;100.00;101592.13;6374483;23;20017;-70
2022/04/26 05:52:49;;;;;;;10.88;6.63;;;;;;;8.76;100.00;101595.28;6373429;23;20016;-69
2022/04/26 05:55:21;;;;;;;6.43;4.93;;;;;;;8.78;100.00;101592.53;6374130;23;20006;-70
2022/04/26 05:57:52;;;;;;;8.70;6.13;;;;;;;8.80;100.00;101595.06;6375019;23;20029;-71
2022/04/26 06:00:24;;;;;;;9.27;5.55;;;;;;;8.85;100.00;101593.81;6373447;23;20010;-69
2022/04/26 06:02:56;;;;;;;10.07;6.40;;;;;;;8.85;100.00;101603.44;6374527;23;20080;-71
2022/04/26 06:05:28;;;;;;;10.02;6.40;;;;;;;8.84;100.00;101588.72;6371772;23;20016;-70
2022/04/26 06:07:59;;;;;;;7.65;6.18;;;;;;;8.91;100.00;101603.88;6372727;23;20460;-70
2022/04/26 06:10:31;;;;;;;11.98;6.10;;;;;;;8.95;100.00;101605.34;6373026;23;20061;-70
2022/04/26 06:13:02;;;;;;;8.55;5.85;;;;;;;8.97;100.00;101611.31;6373901;23;20005;-69
2022/04/26 06:15:34;;;;;;;10.93;6.00;;;;;;;8.98;100.00;101604.31;6346634;23;20041;-72
2022/04/26 06:18:05;;;;;;;10.85;6.22;;;;;;;9.07;100.00;101610.72;6372811;23;20006;-72
2022/04/26 06:20:36;;;;;;;9.00;6.32;;;;;;;9.09;100.00;101611.44;6366859;23;20016;-70
2022/04/26 06:23:09;;;;;;;11.80;6.55;;;;;;;9.14;100.00;101609.38;6371717;23;20448;-70
2022/04/26 06:25:41;;;;;;;11.95;6.22;;;;;;;9.18;100.00;101616.06;6374369;23;20353;-69
2022/04/26 06:28:12;;;;;;;8.60;5.95;;;;;;;9.23;100.00;101619.22;6373914;23;20024;-71
2022/04/26 06:30:43;;;;;;;10.85;6.93;;;;;;;9.27;100.00;101626.75;6374384;23;20060;-69
2022/04/26 06:33:14;;;;;;;10.82;6.60;;;;;;;9.34;100.00;101626.34;6373392;23;20033;-70
2022/04/26 06:35:46;;;;;;;12.73;7.13;;;;;;;9.31;100.00;101621.31;6373823;23;20010;-73
2022/04/26 06:38:18;;;;;;;9.90;6.10;;;;;;;9.37;100.00;101624.34;6373998;23;20030;-70
2022/04/26 06:40:51;;;;;;;12.73;7.07;;;;;;;9.48;100.00;101632.31;6370782;23;20068;-73
2022/04/26 06:43:23;;;;;;;10.43;7.22;;;;;;;9.53;100.00;101636.41;6373264;23;20032;-70
2022/04/26 06:45:54;;;;;;;8.73;6.90;;;;;;;9.52;100.00;101625.09;6372715;23;20010;-71
2022/04/26 06:48:25;;;;;;;11.60;6.93;;;;;;;9.55;100.00;101632.75;6373072;23;20006;-70
2022/04/26 06:50:57;;;;;;;10.40;7.47;;;;;;;9.59;100.00;101630.75;6371010;23;20010;-70
2022/04/26 06:53:29;;;;;;;11.07;7.80;;;;;;;9.60;100.00;101646.34;6371407;23;20331;-71
2022/04/26 06:56:00;;;;;;;12.73;8.07;;;;;;;9.63;100.00;101635.69;6370186;23;20091;-69
2022/04/26 06:58:33;;;;;;;11.70;8.27;;;;;;;9.69;100.00;101637.03;6372083;23;20006;-70
2022/04/26 07:01:04;;;;;;;10.53;7.87;;;;;;;9.85;100.00;101648.13;6372697;23;20010;-70
2022/04/26 07:03:35;;;;;;;10.65;8.05;;;;;;;9.95;100.00;101650.94;6372056;23;20009;-72
2022/04/26 07:06:06;;;;;;;10.05;7.47;;;;;;;10.01;100.00;101642.66;6345260;23;20092;-69
2022/04/26 07:08:38;;;;;;;9.38;7.22;;;;;;;10.06;100.00;101652.81;6345660;23;19998;-71
2022/04/26 07:11:09;;;;;;;10.50;7.93;;;;;;;10.14;100.00;101648.69;6373886;23;20038;-70
2022/04/26 07:13:41;;;;;;;11.75;7.50;;;;;;;10.30;100.00;101650.28;6373287;23;20321;-70
2022/04/26 07:16:12;;;;;;;11.00;8.05;;;;;;;10.50;100.00;101644.47;6369322;23;20084;-70
2022/04/26 07:18:43;;;;;;;12.07;7.30;;;;;;;10.66;100.00;101646.81;6371420;23;20034;-70
2022/04/26 07:21:14;;;;;;;9.45;6.93;;;;;;;10.68;100.00;101651.00;6370276;23;20085;-69
2022/04/26 07:23:46;;;;;;;11.77;7.85;;;;;;;10.76;100.00;101650.47;6374946;23;20061;-71
2022/04/26 07:26:17;;;;;;;9.57;7.45;;;;;;;10.85;100.00;101649.78;6345743;23;20367;-70
2022/04/26 07:28:48;;;;;;;9.23;7.10;;;;;;;10.93;100.00;101654.44;6372744;23;20009;-70
2022/04/26 07:31:20;;;;;;;11.43;7.28;;;;;;;11.07;100.00;101659.53;6372590;23;20044;-72
2022/04/26 07:36:41;;;;;;;9.52;7.50;;;;;;;11.20;100.00;101664.69;6375230;23;20445;-71
2022/04/26 07:39:14;;;;;;;9.82;6.63;;;;;;;11.11;100.00;101662.75;6374476;23;20018;-71
2022/04/26 07:41:47;;;;;;;10.18;6.90;;;;;;;11.09;100.00;101672.50;6375333;23;20006;-70
2022/04/26 07:44:18;;;;;;;9.75;6.80;;;;;;;11.13;100.00;101663.47;6374248;23;20009;-70
2022/04/26 07:46:51;;;;;;;8.98;7.10;;;;;;;11.13;100.00;101669.53;6375667;23;20018;-70
2022/04/26 07:49:23;;;;;;;11.05;6.97;;;;;;;11.26;100.00;101676.53;6374820;23;20002;-70
2022/04/26 07:51:55;;;;;;;8.23;6.57;;;;;;;11.17;100.00;101672.78;6349069;23;20021;-71
2022/04/26 07:54:27;;;;;;;8.55;6.85;;;;;;;11.12;100.00;101680.16;6373167;23;20016;-70
2022/04/26 07:56:58;;;;;;;13.93;6.55;;;;;;;11.20;98.57;101683.03;6375187;23;20085;-70
2022/04/26 07:59:30;;;;;;;9.00;6.38;;;;;;;11.16;99.35;101684.22;6374277;23;20002;-70
2022/04/26 08:02:05;;;;;;;10.07;6.47;;;;;;;11.11;98.62;101688.97;6374511;23;20297;-73
2022/04/26 08:04:37;;;;;;;10.98;6.70;;;;;;;11.13;97.90;101687.91;6374794;23;20014;-70
2022/04/26 08:07:08;;;;;;;11.55;6.13;;;;;;;11.33;100.00;101694.31;6374906;23;20012;-71
2022/04/26 08:09:39;;;;;;;11.30;6.78;;;;;;;11.37;96.64;101694.94;6375687;23;20002;-70
2022/04/26 08:12:11;;;;;;;10.35;6.63;;;;;;;11.50;96.44;101697.47;6374960;23;20009;-70
2022/04/26 08:14:43;;;;;;;8.25;6.00;;;;;;;11.49;95.51;101706.28;6373848;23;20033;-71
2022/04/26 08:17:15;;;;;;;9.68;6.32;;;;;;;11.56;97.66;101700.47;6371512;23;20006;-72
2022/04/26 08:19:46;;;;;;;10.32;6.53;;;;;;;11.54;94.05;101718.09;6372550;23;20013;-71
2022/04/26 08:22:17;;;;;;;10.63;6.38;;;;;;;11.61;94.99;101719.31;6374336;23;20005;-73
2022/04/26 08:27:38;;;;;;;10.23;5.82;;;;;;;11.65;92.90;101730.41;6371453;23;20018;-74
2022/04/26 08:30:10;;;;;;;9.85;5.47;;;;;;;11.59;90.57;101728.25;6346971;23;20030;-71
2022/04/26 08:32:47;;;;;;;9.35;6.30;;;;;;;11.80;92.42;101729.25;6374883;23;20005;-71
2022/04/26 08:35:25;;;;;;;7.80;5.78;;;;;;;11.81;91.22;101725.69;6373035;23;20006;-71
2022/04/26 08:37:56;;;;;;;9.02;5.35;;;;;;;11.91;90.60;101733.75;6371875;23;20010;-72
2022/04/26 08:40:28;;;;;;;8.95;5.18;;;;;;;11.89;86.18;101726.00;6402548;23;20091;-71
2022/04/26 08:42:59;;;;;;;7.38;5.07;;;;;;;11.91;89.68;101731.94;6404615;23;20024;-72
2022/04/26 08:45:31;;;;;;;10.50;5.68;;;;;;;12.03;89.52;101738.03;6404726;23;20005;-71
2022/04/26 08:51:04;;;;;;;11.68;5.68;;;;;;;12.06;88.40;101731.72;6404993;23;20010;-73
2022/04/26 08:53:36;;;;;;;9.43;5.45;;;;;;;12.29;89.48;101736.03;6404863;23;20005;-73
2022/04/26 08:56:07;;;;;;;9.05;4.90;;;;;;;12.51;88.65;101739.63;6403657;23;20519;-73
2022/04/26 08:58:40;;;;;;;8.68;5.28;;;;;;;12.61;86.43;101745.81;6402046;23;20002;-72
2022/04/26 09:01:24;;;;;;;9.57;4.53;;;;;;;12.88;85.95;101737.53;6404734;23;20033;-71
2022/04/26 09:03:56;;;;;;;8.43;5.03;;;;;;;12.82;84.53;101740.66;6400777;23;20334;-71
2022/04/26 09:06:39;;;;;;;8.45;4.68;;;;;;;12.93;82.09;101745.06;6403367;23;20001;-71
2022/04/26 09:09:15;;;;;;;6.65;4.25;;;;;;;13.03;80.51;101749.47;6404761;23;20016;-72
2022/04/26 09:11:48;;;;;;;8.32;3.88;;;;;;;13.06;81.93;101737.81;6404161;23;20457;-72
2022/04/26 09:14:39;;;;;;;8.52;4.10;;;;;;;13.37;79.24;101744.06;6402398;23;20020;-71
2022/04/26 09:17:12;;;;;;;8.88;4.55;;;;;;;13.31;78.92;101737.53;6401647;23;20071;-71
2022/04/26 09:19:49;;;;;;;8.77;4.20;;;;;;;13.59;79.13;101743.16;6403418;23;20006;-75
2022/04/26 09:22:26;;;;;;;8.18;4.03;;;;;;;13.80;76.75;101738.72;6404041;23;20333;-71
2022/04/26 09:25:04;;;;;;;10.35;4.07;;;;;;;13.75;73.18;101740.91;6402661;23;20016;-72
2022/04/26 09:27:39;;;;;;;7.32;4.30;;;;;;;13.77;73.66;101748.69;6402637;23;20346;-72
2022/04/26 09:30:13;;;;;;;5.78;3.50;;;;;;;13.74;72.09;101754.19;6404985;23;20017;-71
2022/04/26 09:32:49;;;;;;;9.55;3.90;;;;;;;13.82;74.10;101754.38;6403439;23;20028;-73
2022/04/26 09:35:22;;;;;;;9.93;4.07;;;;;;;14.03;71.07;101757.03;6404586;23;20005;-70
2022/04/26 09:37:54;;;;;;;11.25;3.70;;;;;;;14.03;72.34;101751.75;6402944;23;20354;-71
2022/04/26 09:40:31;;;;;;;6.13;3.60;;;;;;;14.18;72.23;101757.53;6373490;23;20018;-71
2022/04/26 09:43:02;;;;;;;7.82;3.85;;;;;;;14.10;68.79;101760.81;6372826;23;20042;-71
2022/04/26 09:45:34;;;;;;;8.77;3.40;;;;;;;14.21;66.50;101770.44;6373118;23;20456;-71
2022/04/26 09:48:05;;;;;;;7.88;3.67;;;;;;;14.40;67.55;101769.69;6372179;23;20045;-71
2022/04/26 09:50:36;;;;;;;8.27;3.38;;;;;;;14.45;65.99;101772.75;6374556;23;20015;-71
2022/04/26 09:53:08;;;;;;;5.40;3.47;;;;;;;14.65;69.06;101766.59;6373573;23;20029;-73
2022/04/26 09:55:41;;;;;;;8.18;3.42;;;;;;;14.55;64.78;101774.50;6347198;23;20108;-71
2022/04/26 09:58:17;;;;;;;5.97;3.22;;;;;;;14.84;68.20;101777.22;6371305;23;20013;-74
2022/04/26 10:00:49;;;;;;;6.95;3.30;;;;;;;15.21;68.89;101776.59;6372503;23;20009;-72
2022/04/26 10:03:34;;;;;;;8.95;3.03;;;;;;;15.40;69.32;101786.31;6372564;23;20056;-74
2022/04/26 10:06:07;;;;;;;7.25;3.30;;;;;;;15.29;67.08;101786.47;6373129;23;20009;-71
2022/04/26 10:08:39;;;;;;;5.55;3.65;;;;;;;15.23;65.81;101781.75;6372690;23;20006;-74
2022/04/26 10:11:11;;;;;;;6.18;3.65;;;;;;;15.32;67.20;101799.38;6373056;23;20467;-73
2022/04/26 10:13:43;;;;;;;6.20;3.60;;;;;;;15.39;65.53;101787.31;6373707;23;20017;-72
2022/04/26 10:16:21;;;;;;;6.13;3.40;;;;;;;15.11;66.05;101802.13;6371445;23;20006;-73
2022/04/26 10:19:06;;;;;;;6.72;3.00;;;;;;;15.07;65.77;101798.09;6372825;23;20025;-72
2022/04/26 10:21:46;;;;;;;6.47;3.40;;;;;;;15.11;65.91;101803.94;6373130;23;20425;-74
2022/04/26 10:24:20;;;;;;;7.03;3.53;;;;;;;15.19;64.25;101797.03;6373289;23;20449;-72
2022/04/26 10:26:52;;;;;;;5.40;3.42;;;;;;;15.16;63.91;101805.22;6372678;23;20002;-72
2022/04/26 10:29:25;;;;;;;5.32;3.33;;;;;;;15.11;65.30;101802.13;6373160;23;20029;-73
2022/04/26 10:31:56;;;;;;;6.82;3.72;;;;;;;15.05;63.77;101811.44;6373329;23;20362;-74
2022/04/26 10:34:30;;;;;;;6.13;3.47;;;;;;;15.12;63.73;101811.75;6371926;23;20034;-74
2022/04/26 10:37:21;;;;;;;6.68;3.22;;;;;;;15.31;61.89;101808.28;6373504;23;20453;-72
2022/04/26 10:40:03;;;;;;;6.95;3.72;;;;;;;15.32;62.71;101807.31;6373095;23;20010;-75
2022/04/26 10:42:35;;;;;;;7.10;3.97;;;;;;;15.30;61.14;101814.53;6372386;23;20037;-72
2022/04/26 10:45:10;;;;;;;7.50;3.33;;;;;;;15.30;60.38;101814.53;6373383;23;20006;-72
2022/04/26 10:47:42;;;;;;;6.90;3.08;;;;;;;15.38;58.87;101813.84;6373207;23;20327;-72
2022/04/26 10:50:30;;;;;;;7.03;3.25;;;;;;;15.62;59.36;101819.56;6371853;23;20040;-72
2022/04/26 10:53:02;;;;;;;6.80;2.95;;;;;;;15.58;57.57;101820.81;6372973;23;20419;-72
2022/04/26 10:55:33;;;;;;;6.53;3.33;;;;;;;15.70;59.33;101809.16;6373039;23;20013;-72
2022/04/26 10:58:04;;;;;;;5.15;3.33;;;;;;;15.67;57.68;101816.53;6346680;23;20013;-73
2022/04/26 11:00:37;;;;;;;7.38;2.92;;;;;;;15.82;57.89;101820.41;6371971;23;20010;-73
2022/04/26 11:03:08;;;;;;;5.22;3.13;;;;;;;15.79;58.20;101821.50;6372399;23;20006;-73
2022/04/26 11:05:40;;;;;;;5.22;3.00;;;;;;;16.06;59.24;101817.31;6371337;23;20017;-73
2022/04/26 11:08:11;;;;;;;6.03;2.88;;;;;;;15.76;55.20;101815.72;6372345;23;20013;-72
2022/04/26 11:11:01;;;;;;;7.30;3.13;;;;;;;15.94;55.57;101818.44;6372676;23;20010;-71
2022/04/26 11:13:35;;;;;;;4.57;3.08;;;;;;;16.03;53.41;101812.31;6346200;23;20061;-72
2022/04/26 11:16:12;;;;;;;7.15;3.25;;;;;;;16.24;55.09;101812.94;6373147;23;20006;-71
2022/04/26 11:18:45;;;;;;;6.30;3.13;;;;;;;16.29;55.71;101815.19;6370302;23;20349;-73
2022/04/26 11:21:16;;;;;;;;;;;;;;;16.93;54.69;101814.41;6372568;23;20014;-71
2022/04/26 11:29:42;;;;;;;6.03;3.60;;;;;;;16.41;52.40;101816.69;6373254;23;20010;-72
2022/04/26 11:32:28;;;;;;;;;;;;;;;16.97;52.34;101814.91;6373930;23;20002;-72
2022/04/26 11:35:00;;;;;;;5.15;3.58;;;;;;;16.44;51.87;101815.53;6372733;23;19932;-71
2022/04/26 11:37:31;;;;;;;8.98;3.83;;;;;;;16.46;47.28;101810.94;6372941;23;20078;-72
2022/04/26 11:40:03;;;;;;;5.60;4.00;;;;;;;16.38;47.34;101814.31;6371545;23;20017;-72
2022/04/26 11:42:35;;;;;;;7.17;3.33;;;;;;;16.59;48.42;101807.97;6372622;23;20029;-72
2022/04/26 11:45:07;;;;;;;5.57;3.47;;;;;;;16.81;48.10;101827.94;6346695;23;20250;-73
2022/04/26 11:47:39;;;;;;;5.22;3.58;;;;;;;16.84;46.04;101817.91;6373589;23;20501;-73
2022/04/26 11:50:12;;;;;;;7.97;3.93;;;;;;;16.89;47.03;101818.28;6373190;23;20012;-72
2022/04/26 11:52:44;;;;;;;4.75;3.60;;;;;;;16.86;48.41;101826.56;6371700;23;20340;-72
2022/04/26 11:55:28;;;;;;;5.05;3.67;;;;;;;17.01;47.51;101832.19;6371878;23;20074;-71
2022/04/26 11:58:08;;;;;;;5.25;3.75;;;;;;;17.00;44.00;101833.13;6372344;23;20006;-72
2022/04/26 12:01:07;;;;;;;5.35;3.90;;;;;;;17.20;45.91;101831.22;6372331;23;20501;-72
2022/04/26 12:03:44;;;;;;;5.85;4.13;;;;;;;17.07;45.62;101841.34;6372849;23;20076;-72
2022/04/26 12:06:32;;;;;;;5.13;3.60;;;;;;;17.12;45.52;101839.94;6372825;23;20029;-72
2022/04/26 12:09:05;;;;;;;6.55;3.63;;;;;;;17.05;44.65;101838.00;6373655;23;20001;-72
2022/04/26 12:11:38;;;;;;;4.93;3.42;;;;;;;16.87;42.76;101844.09;6373400;23;20018;-72
2022/04/26 12:14:15;;;;;;;6.60;3.88;;;;;;;17.05;46.54;101844.16;6346630;23;20089;-73
2022/04/26 12:16:54;;;;;;;6.22;3.33;;;;;;;17.13;43.65;101835.47;6373421;23;20005;-72
2022/04/26 12:19:36;;;;;;;5.72;3.63;;;;;;;17.06;42.60;101839.69;6374883;23;20018;-72
2022/04/26 12:22:07;;;;;;;6.35;3.88;;;;;;;16.95;42.18;101838.88;6375100;23;20014;-72
2022/04/26 12:24:51;;;;;;;7.60;3.42;;;;;;;17.22;42.29;101827.44;6375013;23;20422;-72
2022/04/26 12:27:22;;;;;;;6.68;3.30;;;;;;;17.13;41.01;101824.88;6348791;23;20031;-72
2022/04/26 12:29:54;;;;;;;5.25;3.10;;;;;;;17.17;41.51;101827.06;6375174;23;20025;-73
2022/04/26 12:32:26;;;;;;;4.50;2.80;;;;;;;17.08;40.03;101824.47;6375308;23;20010;-72
2022/04/26 12:35:00;;;;;;;4.68;2.72;;;;;;;17.01;38.19;101834.84;6374152;23;20551;-72
2022/04/26 12:37:34;;;;;;;3.53;2.80;;;;;;;16.93;40.35;101843.50;6374038;23;20006;-72
2022/04/26 12:40:08;;;;;;;4.78;3.13;;;;;;;17.07;41.01;101841.34;6374543;23;20041;-71
2022/04/26 12:42:41;;;;;;;4.53;2.92;;;;;;;17.12;38.22;101837.28;6348324;23;20061;-72
2022/04/26 12:45:21;;;;;;;4.43;3.05;;;;;;;17.44;39.67;101834.13;6347274;23;20354;-72
2022/04/26 12:51:21;;;;;;;7.53;3.30;;;;;;;17.83;39.48;101835.66;6374660;23;20013;-71
2022/04/26 12:53:52;;;;;;;5.28;3.15;;;;;;;17.74;40.26;101832.91;6373070;23;20005;-71
2022/04/26 12:56:25;;;;;;;6.78;3.30;;;;;;;17.75;38.95;101834.59;6374776;23;20010;-71
2022/04/26 12:58:57;;;;;;;6.57;3.65;;;;;;;17.55;38.90;101830.41;6374638;23;20069;-71
2022/04/26 13:01:29;;;;;;;4.60;3.35;;;;;;;17.66;40.36;101829.34;6373942;23;20471;-72
2022/04/26 13:04:00;;;;;;;6.78;3.90;;;;;;;17.61;40.97;101832.44;6374787;23;20036;-71
2022/04/26 13:06:31;;;;;;;5.10;3.85;;;;;;;17.45;42.65;101837.59;6374797;23;20081;-73
2022/04/26 13:09:03;;;;;;;6.85;4.25;;;;;;;17.30;41.66;101837.28;6374798;23;20001;-71
2022/04/26 13:11:36;;;;;;;6.22;3.50;;;;;;;17.45;40.75;101842.91;6374444;23;20088;-71
2022/04/26 13:14:08;;;;;;;5.85;3.50;;;;;;;17.08;40.36;101830.59;6375011;23;20017;-72
2022/04/26 13:16:39;;;;;;;6.53;3.22;;;;;;;17.33;41.92;101844.94;6374312;23;20006;-71
2022/04/26 13:19:10;;;;;;;4.95;3.47;;;;;;;17.39;41.64;101838.22;6373840;23;20013;-71
2022/04/26 13:21:41;;;;;;;6.07;4.13;;;;;;;17.27;40.37;101830.50;6374300;23;20006;-71
2022/04/26 13:24:15;;;;;;;5.25;3.50;;;;;;;17.49;41.55;101841.59;6348782;23;20089;-72
2022/04/26 13:26:46;;;;;;;5.03;3.53;;;;;;;17.40;41.70;101842.53;6374176;23;20006;-72
2022/04/26 13:29:17;;;;;;;5.68;3.53;;;;;;;17.45;42.21;101835.78;6348380;23;20033;-71
2022/04/26 13:31:49;;;;;;;5.22;3.50;;;;;;;17.58;42.45;101832.75;6349013;23;20014;-71
2022/04/26 13:34:21;;;;;;;7.95;3.75;;;;;;;17.51;42.19;101827.22;6374001;23;20006;-73
2022/04/26 13:36:54;;;;;;;8.30;3.65;;;;;;;17.88;42.16;101828.91;6373968;23;20081;-71
2022/04/26 13:39:25;;;;;;;5.72;3.38;;;;;;;18.07;41.25;101819.06;6374053;23;20021;-71
2022/04/26 13:41:57;;;;;;;4.75;3.22;;;;;;;18.21;42.85;101835.25;6374802;23;20014;-71
2022/04/26 13:44:28;;;;;;;5.37;2.97;;;;;;;17.92;39.75;101837.41;6374418;23;20001;-71
2022/04/26 13:47:02;;;;;;;5.90;3.35;;;;;;;17.84;40.72;101840.81;6374371;23;20072;-71
2022/04/26 13:49:35;;;;;;;6.57;3.42;;;;;;;17.61;41.24;101850.16;6373485;23;20005;-73
2022/04/26 13:52:09;;;;;;;5.82;3.40;;;;;;;17.40;41.53;101840.69;6373860;23;20435;-71
2022/04/26 13:54:44;;;;;;;4.45;3.38;;;;;;;17.11;41.59;101859.41;6374495;23;20028;-71
2022/04/26 13:57:16;;;;;;;4.55;3.20;;;;;;;17.16;41.58;101846.59;6374384;23;20009;-72
2022/04/26 13:59:47;;;;;;;5.20;3.38;;;;;;;17.07;41.64;101852.75;6373899;23;20382;-71
2022/04/26 14:02:21;;;;;;;3.58;2.85;;;;;;;17.24;42.61;101851.13;6373846;23;20008;-72
2022/04/26 14:04:52;;;;;;;5.70;3.55;;;;;;;17.03;41.84;101846.09;6374241;23;20027;-71
2022/04/26 14:07:24;;;;;;;4.40;3.17;;;;;;;17.25;42.01;101844.84;6373329;23;20044;-74
2022/04/26 14:09:55;;;;;;;3.92;2.63;;;;;;;17.24;42.99;101844.03;6374508;23;20006;-71
2022/04/26 14:12:27;;;;;;;4.13;2.80;;;;;;;17.25;41.70;101843.03;6347613;23;20010;-71
2022/04/26 14:23:31;;;;;;;4.20;2.55;;;;;;;16.98;41.37;101846.53;6372971;23;20018;-72
2022/04/26 14:26:03;;;;;;;4.53;2.75;;;;;;;16.94;38.87;101852.28;6373838;23;20010;-71
2022/04/26 14:28:34;;;;;;;4.93;2.50;;;;;;;17.06;38.73;101852.91;6374388;23;20005;-72
2022/04/26 14:31:06;;;;;;;3.78;2.15;;;;;;;16.98;39.31;101843.91;6374000;23;20434;-71
2022/04/26 14:33:38;;;;;;;3.40;2.50;;;;;;;16.99;39.63;101852.66;6370043;23;20465;-72
2022/04/26 14:36:09;;;;;;;4.20;2.38;;;;;;;17.00;39.77;101849.03;6369275;23;20010;-73
2022/04/26 14:38:40;;;;;;;5.10;2.63;;;;;;;17.11;39.70;101840.06;6370947;23;20041;-73
2022/04/26 14:43:46;;;;;;;3.92;2.60;;;;;;;17.05;40.17;101867.97;6394628;23;20415;-69
2022/04/26 14:46:17;;;;;;;4.00;2.50;;;;;;;16.94;38.78;101857.56;6402719;23;20005;-71
2022/04/26 14:48:48;;;;;;;5.70;2.73;;;;;;;16.84;39.38;101857.59;6402560;23;20600;-71
2022/04/26 14:51:19;;;;;;;7.47;2.58;;;;;;;16.80;40.47;101850.94;6402966;23;20684;-70
2022/04/26 14:53:51;;;;;;;5.07;2.83;;;;;;;16.76;40.03;101858.34;6376989;23;20508;-67
2022/04/26 14:56:23;;;;;;;5.05;2.60;;;;;;;16.82;40.67;101853.44;6400848;23;20341;-69
2022/04/26 14:58:54;;;;;;;4.50;2.60;;;;;;;16.70;39.86;101853.59;6375459;23;20012;-71
2022/04/26 15:01:29;;;;;;;5.72;2.70;;;;;;;16.54;40.45;101863.97;6403040;23;20013;-71
2022/04/26 15:04:00;;;;;;;4.10;2.13;;;;;;;16.42;40.01;101859.81;6402453;23;20002;-72
2022/04/26 15:06:32;;;;;;;5.53;2.60;;;;;;;16.47;40.47;101860.22;6402024;23;20063;-68
2022/04/26 15:17:34;;;;;;;3.78;2.20;;;;;;;16.35;40.14;101859.56;6401168;23;20013;-70
2022/04/26 15:20:07;;;;;;;4.25;2.38;;;;;;;16.29;39.87;101858.34;6400769;23;20314;-71
2022/04/26 15:22:38;;;;;;;4.47;2.53;;;;;;;16.23;39.88;101858.88;6401077;23;20064;-70
2022/04/26 15:25:10;;;;;;;4.70;2.65;;;;;;;16.15;39.88;101871.16;6402046;23;20005;-70
2022/04/26 15:27:41;;;;;;;3.42;2.25;;;;;;;16.05;40.27;101857.94;6401692;23;20008;-70
2022/04/26 15:30:13;;;;;;;3.55;1.90;;;;;;;16.01;38.62;101862.66;6401025;23;20083;-70
2022/04/26 15:32:44;;;;;;;3.95;2.40;;;;;;;15.96;37.78;101856.16;6402321;23;20599;-72
2022/04/26 15:35:15;;;;;;;3.67;2.60;;;;;;;16.01;38.72;101864.47;6374666;23;20013;-70
2022/04/26 15:37:48;;;;;;;3.38;2.00;;;;;;;15.99;39.13;101859.34;6403769;23;20025;-70
2022/04/26 15:40:19;;;;;;;5.50;2.30;;;;;;;15.93;38.37;101865.19;6402911;23;20009;-69
2022/04/26 15:42:50;;;;;;;4.28;2.28;;;;;;;15.84;38.77;101865.22;6401586;23;20326;-69
2022/04/26 15:45:23;;;;;;;4.05;2.15;;;;;;;15.90;39.15;101872.56;6403030;23;20017;-70
2022/04/26 15:47:54;;;;;;;6.97;2.53;;;;;;;15.85;38.33;101872.16;6376394;23;20013;-69
2022/04/26 15:50:26;;;;;;;4.85;2.25;;;;;;;15.90;38.95;101867.28;6405542;23;20009;-70
2022/04/26 15:52:57;;;;;;;5.20;2.30;;;;;;;15.92;37.07;101866.16;6405116;23;20009;-70
2022/04/26 15:55:28;;;;;;;5.32;2.40;;;;;;;15.95;37.30;101873.81;6403957;23;20080;-68
2022/04/26 15:58:00;;;;;;;4.88;2.08;;;;;;;15.87;36.63;101867.53;6403334;23;20036;-68
2022/04/26 16:00:32;;;;;;;3.63;2.20;;;;;;;15.78;36.80;101863.94;6405635;23;20005;-67
2022/04/26 16:03:04;;;;;;;4.57;2.30;;;;;;;15.65;37.26;101861.59;6404893;23;20010;-68